Time;durP1;ratioP1;P1;durP2;ratioP2;P2;SDS_P1;SDS_P2;PMS_P1;PMS_P2;Temp;Humidity;BMP_temperature;BMP_pressure;BME280_temperature;BME280_humidity;BME280_pressure;Samples;Min_cycle;Max_cycle;Signal;HPM_P1;HPM_P2
2022/06/15 00:01:35;;;;;;;5.60;3.07;;;16.10;99.90;;;;;;5093155;28;20228;-67
2022/06/15 00:04:02;;;;;;;7.67;3.10;;;16.10;99.90;;;;;;5093299;28;20544;-67
2022/06/15 00:06:30;;;;;;;7.97;3.37;;;16.10;99.90;;;;;;5093756;28;20236;-68
2022/06/15 00:08:58;;;;;;;8.27;3.33;;;16.10;99.90;;;;;;5093449;28;20228;-68
2022/06/15 00:11:31;;;;;;;4.93;2.97;;;16.20;99.90;;;;;;5093614;28;20198;-67
2022/06/15 00:13:59;;;;;;;9.73;3.43;;;16.10;99.90;;;;;;5093010;28;20207;-67
2022/06/15 00:16:25;;;;;;;11.47;3.40;;;16.10;99.90;;;;;;5093017;28;20168;-67
2022/06/15 00:18:51;;;;;;;6.20;2.90;;;16.10;99.90;;;;;;5093207;28;20661;-67
2022/06/15 00:21:18;;;;;;;8.37;3.07;;;16.10;99.90;;;;;;5093401;28;20171;-67
2022/06/15 00:23:44;;;;;;;5.57;3.00;;;16.00;1.00;;;;;;5093200;28;20207;-67
2022/06/15 00:26:10;;;;;;;7.73;2.80;;;15.90;1.00;;;;;;5093512;28;20170;-68
2022/06/15 00:28:36;;;;;;;5.17;2.93;;;15.90;1.00;;;;;;5092882;28;20606;-68
2022/06/15 00:31:03;;;;;;;3.97;2.73;;;15.90;1.00;;;;;;5093233;28;20258;-67
2022/06/15 00:33:28;;;;;;;6.27;2.50;;;15.80;1.00;;;;;;5093241;28;20381;-68
2022/06/15 00:35:59;;;;;;;6.40;2.70;;;15.80;1.00;;;;;;5093237;28;20246;-68
2022/06/15 00:38:48;;;;;;;4.83;3.00;;;15.80;1.00;;;;;;5093369;28;20187;-67
2022/06/15 00:41:17;;;;;;;5.93;2.80;;;15.80;1.00;;;;;;5091591;28;20187;-67
2022/06/15 00:43:53;;;;;;;5.57;3.27;;;15.70;1.00;;;;;;5092902;28;20619;-68
2022/06/15 00:46:33;;;;;;;6.03;3.10;;;15.70;1.00;;;;;;5093261;28;20266;-68
2022/06/15 00:49:01;;;;;;;5.93;2.80;;;15.60;1.00;;;;;;5093213;28;20164;-68
2022/06/15 00:51:28;;;;;;;3.20;2.90;;;15.50;1.00;;;;;;5093120;28;20160;-67
2022/06/15 00:53:54;;;;;;;4.33;2.70;;;15.50;1.00;;;;;;5092923;28;20215;-68
2022/06/15 00:56:20;;;;;;;4.67;3.10;;;15.50;1.00;;;;;;5093059;28;20247;-68
2022/06/15 00:58:51;;;;;;;8.00;3.13;;;15.50;1.00;;;;;;5093157;28;20172;-67
2022/06/15 01:01:17;;;;;;;6.47;3.13;;;15.50;1.00;;;;;;5093043;28;20223;-67
2022/06/15 01:03:44;;;;;;;8.80;3.60;;;15.40;1.00;;;;;;5092965;28;20211;-67
2022/06/15 01:06:27;;;;;;;7.10;3.30;;;15.40;1.00;;;;;;5093203;28;20172;-68
2022/06/15 01:09:01;;;;;;;5.83;3.53;;;15.40;1.00;;;;;;5093297;28;20178;-68
2022/06/15 01:11:53;;;;;;;5.43;3.30;;;15.30;1.00;;;;;;5092988;28;20167;-67
2022/06/15 01:14:43;;;;;;;4.30;2.90;;;15.30;1.00;;;;;;5092857;28;20295;-66
2022/06/15 01:17:17;;;;;;;16.50;3.60;;;15.30;1.00;;;;;;5093028;28;20192;-67
2022/06/15 01:19:45;;;;;;;6.60;3.50;;;15.20;1.00;;;;;;5091718;28;20183;-67
2022/06/15 01:22:26;;;;;;;10.23;4.00;;;15.10;1.00;;;;;;5092939;28;20218;-66
2022/06/15 01:25:24;;;;;;;8.60;3.87;;;15.10;1.00;;;;;;5092594;28;20175;-67
2022/06/15 01:28:20;;;;;;;5.90;3.47;;;15.00;1.00;;;;;;5093435;28;20164;-66
2022/06/15 01:31:12;;;;;;;5.20;3.50;;;15.00;1.00;;;;;;5096822;28;20171;-66
2022/06/15 01:34:10;;;;;;;8.47;3.60;;;15.00;1.00;;;;;;5096186;28;20204;-67
2022/06/15 01:36:53;;;;;;;5.87;3.90;;;14.90;1.00;;;;;;5078761;28;20180;-67
2022/06/15 01:39:26;;;;;;;8.43;3.93;;;14.90;1.00;;;;;;5096252;28;20171;-67
2022/06/15 01:42:05;;;;;;;8.30;3.80;;;14.90;1.00;;;;;;5096394;28;20712;-67
2022/06/15 01:44:41;;;;;;;6.00;4.03;;;14.80;1.00;;;;;;5096338;28;20172;-67
2022/06/15 01:47:18;;;;;;;7.90;3.90;;;14.90;1.00;;;;;;5096316;28;20179;-67
2022/06/15 01:49:50;;;;;;;5.60;3.43;;;14.80;1.00;;;;;;5096339;28;20175;-67
2022/06/15 01:52:20;;;;;;;7.53;3.70;;;14.80;1.00;;;;;;5096111;28;20164;-67
2022/06/15 01:55:02;;;;;;;6.53;3.70;;;14.70;1.00;;;;;;5095937;28;20224;-67
2022/06/15 01:57:30;;;;;;;6.03;3.57;;;14.70;1.00;;;;;;5095937;28;20168;-67
2022/06/15 02:00:02;;;;;;;5.83;4.03;;;14.70;1.00;;;;;;5096216;28;20179;-67
2022/06/15 02:02:43;;;;;;;7.07;3.60;;;14.60;1.00;;;;;;5095695;28;20219;-67
2022/06/15 02:05:13;;;;;;;7.10;3.90;;;14.70;1.00;;;;;;5096104;28;20202;-66
2022/06/15 02:07:45;;;;;;;8.67;4.33;;;14.70;1.00;;;;;;5095893;28;20208;-68
2022/06/15 02:10:25;;;;;;;6.37;4.00;;;14.70;1.00;;;;;;5096055;28;20164;-68
2022/06/15 02:12:58;;;;;;;10.83;4.40;;;14.60;1.00;;;;;;5095721;28;20210;-66
2022/06/15 02:15:27;;;;;;;11.67;4.10;;;14.60;1.00;;;;;;5095851;28;20200;-67
2022/06/15 02:17:54;;;;;;;8.67;4.53;;;14.60;1.00;;;;;;5095979;28;20234;-67
2022/06/15 02:20:27;;;;;;;7.87;3.80;;;14.50;1.00;;;;;;5095847;28;20171;-68
2022/06/15 02:22:56;;;;;;;10.83;4.37;;;14.50;1.00;;;;;;5094030;28;20176;-67
2022/06/15 02:25:26;;;;;;;5.50;4.10;;;14.50;1.00;;;;;;5095730;28;20176;-67
2022/06/15 02:27:52;;;;;;;5.50;3.63;;;14.40;1.00;;;;;;5095609;28;20182;-67
2022/06/15 02:30:21;;;;;;;5.83;4.30;;;14.40;1.00;;;;;;5095718;28;20664;-67
2022/06/15 02:32:49;;;;;;;7.13;4.67;;;14.40;1.00;;;;;;5095459;28;20215;-66
2022/06/15 02:35:15;;;;;;;9.63;4.17;;;14.30;1.00;;;;;;5095316;28;20597;-67
2022/06/15 02:37:41;;;;;;;6.33;4.73;;;14.30;1.00;;;;;;5095084;28;20179;-67
2022/06/15 02:40:07;;;;;;;6.60;4.33;;;14.30;1.00;;;;;;5094297;28;20693;-67
2022/06/15 02:42:38;;;;;;;6.13;4.60;;;14.30;1.00;;;;;;5094891;28;20218;-67
2022/06/15 02:45:10;;;;;;;8.83;5.23;;;14.20;1.00;;;;;;5095331;28;20178;-67
2022/06/15 02:47:40;;;;;;;6.33;4.90;;;14.20;1.00;;;;;;5095136;28;20178;-67
2022/06/15 02:50:07;;;;;;;9.27;4.97;;;14.10;1.00;;;;;;5094984;28;20605;-67
2022/06/15 02:52:43;;;;;;;7.47;5.03;;;14.10;1.00;;;;;;5094650;28;20255;-67
2022/06/15 02:55:11;;;;;;;7.27;4.70;;;14.10;1.00;;;;;;5094910;28;20631;-67
2022/06/15 02:57:44;;;;;;;11.17;4.90;;;14.00;1.00;;;;;;5094913;28;20171;-67
2022/06/15 03:00:12;;;;;;;8.00;4.83;;;14.00;1.00;;;;;;5094950;28;20160;-67
2022/06/15 03:02:38;;;;;;;5.80;4.60;;;14.10;1.00;;;;;;5094585;28;20223;-67
2022/06/15 03:05:04;;;;;;;7.00;5.00;;;14.00;1.00;;;;;;5094737;28;20176;-67
2022/06/15 03:07:29;;;;;;;8.77;5.13;;;14.00;1.00;;;;;;5094294;28;20172;-66
2022/06/15 03:09:55;;;;;;;11.07;4.80;;;14.00;1.00;;;;;;5094700;28;20314;-66
2022/06/15 03:12:20;;;;;;;7.33;5.10;;;14.00;1.00;;;;;;5094512;28;20164;-66
2022/06/15 03:14:47;;;;;;;8.83;4.63;;;14.00;1.00;;;;;;5094504;28;20211;-67
2022/06/15 03:17:12;;;;;;;6.10;4.77;;;14.00;1.00;;;;;;5094483;28;20168;-66
2022/06/15 03:19:38;;;;;;;9.70;5.10;;;13.90;1.00;;;;;;5094348;28;20168;-67
2022/06/15 03:22:04;;;;;;;7.40;4.80;;;13.90;1.00;;;;;;5093597;28;20275;-67
2022/06/15 03:24:29;;;;;;;7.53;5.00;;;13.90;1.00;;;;;;5094410;28;20195;-67
2022/06/15 03:26:55;;;;;;;10.60;5.00;;;13.80;1.00;;;;;;5094365;28;20521;-67
2022/06/15 03:29:21;;;;;;;5.27;4.40;;;13.90;1.00;;;;;;5094273;28;20225;-67
2022/06/15 03:31:47;;;;;;;6.47;4.60;;;13.90;1.00;;;;;;5093980;28;20159;-68
2022/06/15 03:34:13;;;;;;;8.17;5.20;;;13.80;1.00;;;;;;5094147;28;20736;-67
2022/06/15 03:36:38;;;;;;;8.80;5.20;;;13.80;1.00;;;;;;5092322;28;20200;-67
2022/06/15 03:39:04;;;;;;;8.30;5.30;;;13.90;1.00;;;;;;5094362;28;20199;-66
2022/06/15 03:41:29;;;;;;;9.63;5.40;;;13.90;1.00;;;;;;5093421;28;20616;-66
2022/06/15 03:43:55;;;;;;;6.93;4.87;;;13.90;1.00;;;;;;5093813;28;20217;-66
2022/06/15 03:46:23;;;;;;;12.73;5.43;;;14.00;1.00;;;;;;5093867;28;20529;-67
2022/06/15 03:48:48;;;;;;;10.20;5.60;;;14.10;1.00;;;;;;5094034;28;20190;-68
2022/06/15 03:51:14;;;;;;;6.57;5.43;;;14.30;1.00;;;;;;5092879;28;20180;-67
2022/06/15 03:53:40;;;;;;;11.50;5.30;;;14.70;1.00;;;;;;5093530;28;20215;-67
2022/06/15 03:56:06;;;;;;;10.03;5.13;;;15.10;1.00;;;;;;5093998;28;20520;-67
2022/06/15 03:58:31;;;;;;;7.90;5.27;;;15.50;1.00;;;;;;5093539;28;20267;-67
2022/06/15 04:00:57;;;;;;;8.83;5.00;;;15.80;1.00;;;;;;5093282;28;20163;-68
2022/06/15 04:03:23;;;;;;;7.87;4.53;;;16.20;1.00;;;;;;5093463;28;20233;-67
2022/06/15 04:05:55;;;;;;;13.37;5.70;;;16.60;1.00;;;;;;5093239;28;20172;-67
2022/06/15 04:08:37;;;;;;;13.53;5.63;;;16.90;99.90;;;;;;5092288;28;20674;-67
2022/06/15 04:11:58;;;;;;;10.20;5.07;;;17.60;34.60;;;;;;5092729;28;20185;-68
2022/06/15 04:14:01;;;;;;;11.47;5.47;;;17.70;1.00;;;;;;5092903;28;20224;-68
2022/06/15 04:16:27;;;;;;;9.77;5.00;;;17.90;1.00;;;;;;5093731;28;20263;-67
2022/06/15 04:18:53;;;;;;;8.20;4.83;;;18.30;1.00;;;;;;5093085;28;20183;-69
2022/06/15 04:21:19;;;;;;;11.20;4.87;;;18.40;99.90;;;;;;5093108;28;20522;-68
2022/06/15 04:23:44;;;;;;;9.63;5.20;;;18.40;1.00;;;;;;5092970;28;20180;-68
2022/06/15 04:26:10;;;;;;;8.53;4.77;;;18.80;99.90;;;;;;5093183;28;20179;-68
2022/06/15 04:28:37;;;;;;;11.10;4.77;;;19.10;99.90;;;;;;5093034;28;20702;-68
2022/06/15 04:31:03;;;;;;;9.90;5.05;;;19.70;1.00;;;;;;5093141;28;20199;-68
2022/06/15 04:33:29;;;;;;;10.30;5.40;;;19.80;1.00;;;;;;5092483;28;20247;-69
2022/06/15 04:35:55;;;;;;;10.82;4.93;;;20.00;1.00;;;;;;5092722;28;20182;-69
2022/06/15 04:38:21;;;;;;;15.38;5.18;;;21.10;99.90;;;;;;5093013;28;20168;-69
2022/06/15 04:40:46;;;;;;;11.55;4.93;;;21.70;1.00;;;;;;5092639;28;20174;-69
2022/06/15 04:43:12;;;;;;;10.40;5.03;;;22.30;1.00;;;;;;5092793;28;20537;-69
2022/06/15 04:45:38;;;;;;;14.00;5.43;;;23.20;1.00;;;;;;5093135;28;20217;-68
2022/06/15 04:48:04;;;;;;;16.65;5.70;;;23.80;99.90;;;;;;5092505;28;20184;-68
2022/06/15 04:50:31;;;;;;;17.10;5.70;;;23.90;99.90;;;;;;5092954;28;20229;-68
2022/06/15 04:52:57;;;;;;;17.13;5.40;;;24.10;99.90;;;;;;5092396;28;20279;-69
2022/06/15 04:55:23;;;;;;;20.48;5.72;;;24.60;99.90;;;;;;5091254;28;20584;-69
2022/06/15 04:57:54;;;;;;;21.33;5.60;;;25.20;99.90;;;;;;5092649;28;20211;-70
2022/06/15 05:00:20;;;;;;;30.92;6.93;;;25.80;99.90;;;;;;5092241;28;20153;-70
2022/06/15 05:02:46;;;;;;;25.38;6.50;;;25.10;99.90;;;;;;5090510;28;20578;-70
2022/06/15 05:05:12;;;;;;;27.90;6.90;;;24.70;99.90;;;;;;5096979;28;20164;-69
2022/06/15 05:07:38;;;;;;;21.40;6.47;;;23.60;99.90;;;;;;5096849;28;20214;-69
2022/06/15 05:10:05;;;;;;;22.20;7.18;;;23.60;99.90;;;;;;5096386;28;20176;-70
2022/06/15 05:12:31;;;;;;;22.95;7.15;;;23.30;99.90;;;;;;5095528;28;20182;-70
2022/06/15 05:14:57;;;;;;;22.35;6.35;;;24.00;99.90;;;;;;5095958;28;20180;-69
2022/06/15 05:17:24;;;;;;;19.98;6.70;;;24.70;99.90;;;;;;5096119;28;20171;-69
2022/06/15 05:19:49;;;;;;;20.23;6.57;;;24.60;99.90;;;;;;5096279;28;20175;-71
2022/06/15 05:22:15;;;;;;;22.40;6.60;;;25.00;99.90;;;;;;5096484;28;20638;-71
2022/06/15 05:24:41;;;;;;;23.33;6.57;;;25.60;99.90;;;;;;5095665;28;20649;-72
2022/06/15 05:27:07;;;;;;;16.38;5.85;;;26.50;99.90;;;;;;5094970;28;20690;-70
2022/06/15 05:29:36;;;;;;;13.15;6.13;;;26.70;99.90;;;;;;5095626;28;20233;-70
2022/06/15 05:32:03;;;;;;;11.85;5.93;;;26.60;99.90;;;;;;5095940;28;20233;-71
2022/06/15 05:34:28;;;;;;;13.43;6.28;;;26.40;99.90;;;;;;5094868;28;20724;-71
2022/06/15 05:36:54;;;;;;;10.10;5.93;;;26.90;99.90;;;;;;5095866;28;20175;-70
2022/06/15 05:39:20;;;;;;;6.10;5.47;;;26.70;99.90;;;;;;5095483;28;20214;-72
2022/06/15 05:41:45;;;;;;;11.70;5.90;;;25.70;99.90;;;;;;5095006;28;20160;-71
2022/06/15 05:46:55;;;;;;;8.88;5.93;;;24.90;99.90;;;;;;5094956;28;20168;-71
2022/06/15 05:49:21;;;;;;;10.07;5.93;;;25.00;99.90;;;;;;5093125;28;20602;-71
2022/06/15 05:51:46;;;;;;;8.63;6.00;;;25.50;99.90;;;;;;5095337;28;20195;-71
2022/06/15 05:54:12;;;;;;;6.65;5.95;;;25.60;99.90;;;;;;5095261;28;20585;-72
2022/06/15 05:56:38;;;;;;;6.60;5.88;;;25.30;99.90;;;;;;5094987;28;20220;-71
2022/06/15 05:59:03;;;;;;;8.98;6.60;;;25.50;99.90;;;;;;5094506;28;20620;-71
2022/06/15 06:01:31;;;;;;;7.38;6.13;;;25.60;99.90;;;;;;5093936;28;20568;-70
2022/06/15 06:03:57;;;;;;;7.40;6.03;;;25.10;99.90;;;;;;5094783;28;20195;-71
2022/06/15 06:06:23;;;;;;;9.18;6.85;;;25.20;99.90;;;;;;5094400;28;20165;-72
2022/06/15 06:08:48;;;;;;;9.20;6.85;;;26.00;99.90;;;;;;5093364;28;20584;-71
2022/06/15 06:11:15;;;;;;;7.32;6.22;;;26.80;99.90;;;;;;5094687;28;20184;-71
2022/06/15 06:13:40;;;;;;;8.85;6.32;;;27.00;99.90;;;;;;5094680;28;20199;-71
2022/06/15 06:16:07;;;;;;;11.25;6.60;;;27.30;99.90;;;;;;5092652;28;20189;-71
2022/06/15 06:18:32;;;;;;;11.63;6.50;;;28.00;99.90;;;;;;5093543;28;20172;-72
2022/06/15 06:20:59;;;;;;;9.38;6.40;;;28.80;99.90;;;;;;5094537;28;20264;-71
2022/06/15 06:23:24;;;;;;;6.70;6.00;;;29.90;99.90;;;;;;5080809;28;20742;-71
2022/06/15 06:25:52;;;;;;;12.07;6.22;;;29.60;99.90;;;;;;5073518;28;20176;-70
2022/06/15 06:28:31;;;;;;;6.93;5.97;;;29.60;99.90;;;;;;5074138;28;20172;-71
2022/06/15 06:30:59;;;;;;;6.80;5.63;;;30.40;99.90;;;;;;5086859;28;20164;-70
2022/06/15 06:33:26;;;;;;;9.40;5.82;;;30.90;99.90;;;;;;5101322;28;20210;-70
2022/06/15 06:35:56;;;;;;;8.07;5.53;;;31.20;99.90;;;;;;5098841;28;20168;-71
2022/06/15 06:38:24;;;;;;;8.63;6.25;;;30.60;99.90;;;;;;5109405;28;20666;-71
2022/06/15 06:40:54;;;;;;;7.55;5.72;;;30.30;97.20;;;;;;5097438;28;20634;-71
2022/06/15 06:43:20;;;;;;;8.35;5.72;;;29.40;99.90;;;;;;5107196;28;20172;-73
2022/06/15 06:45:46;;;;;;;9.40;5.78;;;29.90;99.90;;;;;;5104239;28;20177;-70
2022/06/15 06:48:12;;;;;;;11.45;6.70;;;30.70;97.30;;;;;;5099726;28;20709;-73
2022/06/15 06:50:39;;;;;;;7.22;5.82;;;30.60;96.90;;;;;;5109937;28;20175;-71
2022/06/15 06:53:05;;;;;;;11.20;5.72;;;31.00;92.10;;;;;;5098221;28;20256;-73
2022/06/15 06:55:31;;;;;;;6.35;5.72;;;31.70;90.80;;;;;;5105804;28;20229;-71
2022/06/15 06:57:59;;;;;;;9.70;5.40;;;31.30;87.70;;;;;;5105307;28;20535;-72
2022/06/15 07:00:26;;;;;;;9.75;5.63;;;31.00;83.50;;;;;;5093012;28;20665;-73
2022/06/15 07:02:51;;;;;;;7.25;5.60;;;31.10;85.80;;;;;;5109413;28;20330;-73
2022/06/15 07:05:18;;;;;;;10.05;6.55;;;31.40;75.50;;;;;;5100296;28;20509;-71
2022/06/15 07:07:44;;;;;;;9.65;5.78;;;31.30;81.40;;;;;;5092125;28;20271;-70
2022/06/15 07:10:11;;;;;;;8.40;5.60;;;30.70;78.70;;;;;;5079628;28;20184;-72
2022/06/15 07:12:38;;;;;;;10.75;6.45;;;30.20;84.60;;;;;;5094015;28;20240;-68
2022/06/15 07:15:05;;;;;;;8.93;5.85;;;31.20;80.80;;;;;;5089749;28;20181;-69
2022/06/15 07:17:31;;;;;;;10.70;5.97;;;32.20;72.00;;;;;;5084992;28;20176;-69
2022/06/15 07:19:57;;;;;;;8.02;5.72;;;31.20;68.40;;;;;;5105448;28;20177;-69
2022/06/15 07:22:22;;;;;;;9.38;5.25;;;30.80;69.70;;;;;;5094630;28;20557;-70
2022/06/15 07:24:49;;;;;;;6.68;5.82;;;31.00;75.80;;;;;;5099564;28;20275;-71
2022/06/15 07:27:15;;;;;;;7.57;6.13;;;29.80;77.80;;;;;;5089150;28;20279;-69
2022/06/15 07:29:43;;;;;;;6.35;5.75;;;29.00;86.00;;;;;;5082677;28;21043;-67
2022/06/15 07:32:09;;;;;;;7.72;5.55;;;28.60;91.80;;;;;;5087943;28;20174;-68
2022/06/15 07:34:35;;;;;;;8.95;5.32;;;29.70;89.70;;;;;;5102071;28;21156;-71
2022/06/15 07:37:01;;;;;;;9.65;5.60;;;31.10;82.10;;;;;;5095544;28;20167;-69
2022/06/15 07:39:29;;;;;;;8.52;5.50;;;32.00;74.40;;;;;;5087865;28;20258;-69
2022/06/15 07:41:56;;;;;;;12.85;6.10;;;31.40;68.10;;;;;;5091592;28;20208;-71
2022/06/15 07:44:25;;;;;;;11.52;5.82;;;31.70;68.30;;;;;;5102966;28;20210;-68
2022/06/15 07:49:54;;;;;;;11.30;6.40;;;31.40;67.90;;;;;;5108536;28;20183;-68
2022/06/15 07:49:55;;;;;;;11.77;6.07;;;32.30;66.70;;;;;;5090131;28;20541;-71
2022/06/15 07:52:23;;;;;;;16.48;5.80;;;32.40;60.00;;;;;;5100003;28;20199;-69
2022/06/15 07:54:49;;;;;;;14.45;5.35;;;32.80;54.50;;;;;;5093853;28;20208;-72
2022/06/15 07:57:16;;;;;;;9.45;5.78;;;31.40;58.00;;;;;;5106393;28;20679;-69
2022/06/15 07:59:42;;;;;;;8.38;5.03;;;30.90;64.40;;;;;;5089958;28;20176;-70
2022/06/15 08:02:08;;;;;;;9.18;5.47;;;30.40;65.00;;;;;;5086561;28;20230;-71
2022/06/15 08:04:34;;;;;;;15.77;5.93;;;31.90;63.10;;;;;;5092438;28;20254;-71
2022/06/15 08:07:01;;;;;;;15.52;5.78;;;32.20;54.80;;;;;;5092328;28;20199;-73
2022/06/15 08:09:27;;;;;;;10.02;5.22;;;31.80;56.80;;;;;;5092230;28;20168;-73
2022/06/15 08:12:11;;;;;;;10.85;5.40;;;32.20;52.30;;;;;;5090512;28;20187;-72
2022/06/15 08:14:41;;;;;;;10.05;4.85;;;32.10;54.00;;;;;;5092417;28;20609;-71
2022/06/15 08:17:10;;;;;;;10.52;5.47;;;32.00;53.60;;;;;;5092182;28;20184;-71
2022/06/15 08:19:39;;;;;;;10.45;4.80;;;31.30;52.50;;;;;;5092249;28;20635;-71
2022/06/15 08:22:07;;;;;;;12.38;5.30;;;31.30;54.80;;;;;;5079007;28;20165;-72
2022/06/15 08:24:33;;;;;;;11.85;5.00;;;33.00;51.80;;;;;;5071501;28;20599;-70
2022/06/15 08:27:00;;;;;;;9.35;5.55;;;33.20;46.50;;;;;;5071555;28;20165;-70
2022/06/15 08:29:26;;;;;;;10.68;5.72;;;33.90;43.20;;;;;;5071856;28;20173;-69
2022/06/15 08:31:56;;;;;;;8.25;5.22;;;34.90;35.00;;;;;;5072312;28;20613;-71
2022/06/15 08:34:23;;;;;;;11.38;6.78;;;33.10;37.40;;;;;;5070581;28;20204;-72
2022/06/15 08:36:49;;;;;;;7.20;4.97;;;32.90;40.70;;;;;;5071164;28;20226;-72
2022/06/15 08:39:15;;;;;;;10.60;5.63;;;33.30;36.10;;;;;;5071028;28;20165;-72
2022/06/15 08:41:50;;;;;;;9.77;5.10;;;32.70;35.50;;;;;;5093554;28;20258;-72
2022/06/15 08:44:35;;;;;;;12.57;4.93;;;33.60;37.00;;;;;;5091479;28;20182;-70
2022/06/15 08:47:15;;;;;;;8.18;4.93;;;32.70;37.40;;;;;;5091900;28;20630;-71
2022/06/15 08:49:45;;;;;;;8.57;4.88;;;31.00;41.10;;;;;;5092513;28;20202;-73
2022/06/15 08:52:17;;;;;;;6.10;4.22;;;30.60;48.70;;;;;;5087310;28;20180;-70
2022/06/15 08:54:54;;;;;;;8.50;5.32;;;30.00;52.90;;;;;;5081740;28;20602;-70
2022/06/15 08:57:29;;;;;;;10.77;5.05;;;30.50;50.30;;;;;;5077718;28;20202;-70
2022/06/15 09:00:18;;;;;;;8.10;5.10;;;30.40;51.80;;;;;;5082724;28;20175;-71
2022/06/15 09:03:06;;;;;;;5.45;4.85;;;30.40;50.50;;;;;;5077264;28;20258;-71
2022/06/15 09:06:02;;;;;;;7.50;5.03;;;30.60;52.10;;;;;;5091579;28;20226;-69
2022/06/15 09:08:48;;;;;;;5.28;4.75;;;29.60;53.20;;;;;;5091174;28;20190;-70
2022/06/15 09:11:47;;;;;;;6.80;4.70;;;28.90;60.80;;;;;;5091704;28;20194;-71
2022/06/15 09:14:28;;;;;;;7.18;4.45;;;30.20;58.40;;;;;;5090181;28;20237;-70
2022/06/15 09:17:24;;;;;;;7.95;4.18;;;31.20;52.90;;;;;;5088422;28;20655;-69
2022/06/15 09:19:55;;;;;;;6.97;4.60;;;31.90;43.60;;;;;;5029083;28;20200;-72
2022/06/15 09:22:25;;;;;;;8.00;4.78;;;32.10;44.20;;;;;;5029381;28;20232;-70
2022/06/15 09:25:01;;;;;;;12.48;8.25;;;32.40;37.20;;;;;;5028186;28;20624;-72
2022/06/15 09:27:45;;;;;;;14.40;7.70;;;31.40;35.20;;;;;;5029339;28;20641;-71
2022/06/15 09:30:22;;;;;;;14.93;8.68;;;31.10;42.00;;;;;;5029557;28;20660;-70
2022/06/15 09:33:03;;;;;;;13.70;7.15;;;31.20;43.10;;;;;;5042336;28;20169;-74
2022/06/15 09:35:37;;;;;;;11.05;5.97;;;30.30;48.70;;;;;;5048428;28;20158;-71
2022/06/15 09:38:06;;;;;;;18.10;8.68;;;29.70;50.00;;;;;;5048369;28;20185;-70
2022/06/15 09:40:52;;;;;;;12.63;6.70;;;29.40;50.60;;;;;;5048362;28;20260;-72
2022/06/15 09:43:33;;;;;;;14.88;5.32;;;30.20;53.40;;;;;;5042481;28;20252;-69
2022/06/15 09:46:24;;;;;;;9.57;5.45;;;30.60;51.50;;;;;;5006018;28;20193;-69
2022/06/15 09:48:58;;;;;;;8.25;5.40;;;30.60;48.10;;;;;;5028077;28;20182;-69
2022/06/15 09:51:52;;;;;;;7.80;5.18;;;30.00;47.90;;;;;;5019825;28;20175;-69
2022/06/15 09:54:24;;;;;;;7.63;5.07;;;31.00;49.40;;;;;;5024699;28;20684;-70
2022/06/15 09:56:51;;;;;;;8.88;5.07;;;31.00;43.00;;;;;;5066277;28;20180;-71
2022/06/15 09:59:20;;;;;;;6.78;4.60;;;30.10;49.40;;;;;;5093255;28;20183;-70
2022/06/15 10:01:47;;;;;;;8.35;5.28;;;30.90;48.70;;;;;;5086935;28;20569;-67
2022/06/15 10:04:34;;;;;;;7.28;4.43;;;29.80;49.90;;;;;;5076739;28;20662;-70
2022/06/15 10:07:38;;;;;;;7.72;4.97;;;30.80;49.40;;;;;;5085722;28;20179;-70
2022/06/15 10:10:19;;;;;;;9.90;5.00;;;30.80;45.80;;;;;;5092389;28;20175;-70
2022/06/15 10:12:59;;;;;;;9.13;5.55;;;30.70;44.40;;;;;;5085820;28;20189;-71
2022/06/15 10:15:56;;;;;;;11.05;4.80;;;30.20;49.30;;;;;;5080005;28;20230;-71
2022/06/15 10:18:29;;;;;;;9.20;4.75;;;30.80;49.00;;;;;;5038213;28;20188;-70
2022/06/15 10:20:58;;;;;;;6.28;4.40;;;32.10;42.30;;;;;;5090047;28;20307;-70
2022/06/15 10:23:34;;;;;;;8.48;4.68;;;32.00;38.70;;;;;;5093631;28;20196;-70
2022/06/15 10:26:00;;;;;;;13.68;5.22;;;31.00;38.20;;;;;;5091140;28;20216;-71
2022/06/15 10:28:37;;;;;;;7.18;5.00;;;30.10;43.20;;;;;;5074434;28;20169;-71
2022/06/15 10:31:32;;;;;;;9.95;5.30;;;30.00;48.40;;;;;;5092669;28;20257;-72
2022/06/15 10:34:17;;;;;;;8.25;4.65;;;30.70;45.40;;;;;;5067325;28;20211;-70
2022/06/15 10:36:42;;;;;;;9.05;4.93;;;31.80;40.90;;;;;;5094583;28;20168;-73
2022/06/15 10:39:27;;;;;;;7.75;5.05;;;30.90;38.10;;;;;;5106389;28;20182;-70
2022/06/15 10:42:05;;;;;;;9.25;5.50;;;29.60;44.80;;;;;;5113946;27;20283;-72
2022/06/15 10:44:51;;;;;;;6.88;4.85;;;28.70;54.20;;;;;;5114726;28;20334;-70
2022/06/15 10:47:48;;;;;;;6.63;4.43;;;27.90;57.40;;;;;;5114537;27;20163;-71
2022/06/15 10:50:26;;;;;;;6.70;4.97;;;27.90;62.90;;;;;;5112514;28;20167;-70
2022/06/15 10:53:05;;;;;;;9.00;5.07;;;28.30;64.90;;;;;;5098696;28;20525;-69
2022/06/15 11:04:20;;;;;;;5.88;4.65;;;29.70;56.60;;;;;;5093794;28;20217;-69
2022/06/15 11:06:59;;;;;;;7.13;4.50;;;29.70;55.10;;;;;;5093725;28;20247;-71
2022/06/15 11:09:40;;;;;;;10.48;4.15;;;30.00;53.50;;;;;;5093236;28;20645;-69
2022/06/15 11:12:28;;;;;;;17.08;4.85;;;29.10;57.40;;;;;;5091802;28;20172;-69
2022/06/15 11:15:00;;;;;;;6.25;4.20;;;28.80;61.60;;;;;;5081914;28;20215;-68
2022/06/15 11:20:25;;;;;;;8.88;4.30;;;29.50;55.90;;;;;;5071370;28;20234;-69
2022/06/15 11:22:54;;;;;;;7.03;4.15;;;28.60;63.70;;;;;;5071954;28;20168;-68
2022/06/15 11:25:32;;;;;;;8.27;4.85;;;28.40;63.10;;;;;;5088015;28;20261;-69
2022/06/15 11:28:05;;;;;;;7.07;4.90;;;28.40;67.80;;;;;;5092713;28;20175;-70
2022/06/15 11:30:38;;;;;;;7.30;3.85;;;28.60;66.30;;;;;;5093911;28;20164;-69
2022/06/15 11:33:29;;;;;;;5.32;4.57;;;28.40;69.40;;;;;;5092801;28;20196;-69
2022/06/15 11:36:03;;;;;;;7.65;4.07;;;28.60;72.20;;;;;;5093518;28;20183;-69
2022/06/15 11:38:29;;;;;;;7.90;4.10;;;29.70;72.30;;;;;;5093487;28;20178;-70
2022/06/15 11:41:12;;;;;;;8.38;3.97;;;30.70;58.10;;;;;;5093250;28;20172;-70
2022/06/15 11:43:43;;;;;;;5.00;3.97;;;31.50;54.00;;;;;;5093197;28;20186;-70
2022/06/15 11:46:42;;;;;;;8.05;4.40;;;29.60;51.90;;;;;;5093484;28;20526;-69
2022/06/15 11:49:12;;;;;;;8.65;3.83;;;28.60;59.30;;;;;;5092617;28;20160;-69
2022/06/15 11:52:00;;;;;;;6.40;3.80;;;28.00;64.70;;;;;;5092750;28;20202;-68
2022/06/15 11:54:47;;;;;;;7.40;3.88;;;27.50;71.40;;;;;;5092886;28;20211;-70
2022/06/15 11:57:28;;;;;;;8.30;3.53;;;27.40;72.30;;;;;;5092562;28;20179;-68
2022/06/15 12:00:18;;;;;;;5.88;3.90;;;27.20;78.70;;;;;;5092612;28;20250;-70
2022/06/15 12:02:46;;;;;;;8.18;4.15;;;26.50;87.50;;;;;;5092167;28;20278;-69
2022/06/15 12:05:23;;;;;;;6.82;4.15;;;26.50;92.90;;;;;;5091764;28;20168;-69
2022/06/15 12:08:00;;;;;;;9.07;4.30;;;26.90;93.70;;;;;;5092713;28;20635;-69
2022/06/15 12:10:33;;;;;;;9.68;3.53;;;27.30;93.60;;;;;;5092657;28;20177;-69
2022/06/15 12:13:17;;;;;;;8.23;4.25;;;27.00;92.60;;;;;;5091939;28;20264;-69
2022/06/15 12:15:57;;;;;;;4.43;3.88;;;26.70;93.30;;;;;;5091640;28;20175;-69
2022/06/15 12:18:44;;;;;;;8.27;4.00;;;26.40;95.80;;;;;;5091193;28;20179;-69
2022/06/15 12:21:32;;;;;;;5.05;3.55;;;26.80;98.50;;;;;;5092270;28;20163;-69
2022/06/15 12:24:09;;;;;;;8.98;3.92;;;27.40;96.70;;;;;;5092413;28;20631;-69
2022/06/15 12:27:04;;;;;;;5.10;3.42;;;27.80;93.70;;;;;;5091557;28;20195;-69
2022/06/15 12:30:03;;;;;;;6.65;3.83;;;28.20;91.40;;;;;;5085014;28;20342;-69
2022/06/15 12:32:44;;;;;;;10.50;5.13;;;28.00;90.80;;;;;;5071576;28;20620;-69
2022/06/15 12:35:28;;;;;;;6.13;4.22;;;27.60;92.10;;;;;;5077461;28;20187;-68
2022/06/15 12:38:05;;;;;;;9.70;4.03;;;27.10;93.80;;;;;;5080120;28;20182;-69
2022/06/15 12:40:36;;;;;;;9.35;4.10;;;27.30;98.80;;;;;;5075668;28;20949;-69
2022/06/15 12:43:24;;;;;;;8.20;3.92;;;27.50;98.50;;;;;;5071470;28;20267;-69
2022/06/15 12:46:07;;;;;;;7.40;4.25;;;27.10;98.70;;;;;;5075605;28;20233;-68
2022/06/15 12:48:48;;;;;;;9.68;4.07;;;27.20;98.70;;;;;;5073399;28;20168;-68
2022/06/15 12:51:28;;;;;;;8.25;4.30;;;27.50;98.10;;;;;;5073760;28;20211;-70
2022/06/15 12:54:06;;;;;;;6.38;4.40;;;27.70;98.30;;;;;;5070801;28;20207;-70
2022/06/15 12:56:59;;;;;;;8.85;3.78;;;27.80;96.50;;;;;;5073002;28;20168;-70
2022/06/15 12:59:37;;;;;;;9.85;4.10;;;27.80;94.60;;;;;;5073846;28;20663;-70
2022/06/15 13:02:09;;;;;;;10.75;3.97;;;27.60;96.70;;;;;;5079017;28;20227;-69
2022/06/15 13:04:53;;;;;;;7.75;3.63;;;27.70;94.90;;;;;;5071440;28;20181;-69
2022/06/15 13:07:34;;;;;;;7.32;3.83;;;27.70;96.10;;;;;;5072725;28;20643;-70
2022/06/15 13:10:11;;;;;;;4.82;3.67;;;27.70;94.90;;;;;;5088750;28;20286;-70
2022/06/15 13:12:45;;;;;;;4.60;3.72;;;27.60;95.10;;;;;;5090120;28;20249;-70
2022/06/15 13:15:25;;;;;;;4.38;3.38;;;27.30;94.90;;;;;;5088554;28;20177;-69
2022/06/15 13:18:08;;;;;;;8.85;3.60;;;27.60;96.00;;;;;;5081529;28;20172;-69
2022/06/15 13:20:57;;;;;;;8.13;3.88;;;27.90;94.90;;;;;;5091929;28;20241;-70
2022/06/15 13:23:22;;;;;;;6.40;3.63;;;28.00;93.60;;;;;;5091320;28;20172;-69
2022/06/15 13:25:56;;;;;;;5.03;3.80;;;27.50;95.60;;;;;;5094798;28;20200;-69
2022/06/15 13:28:25;;;;;;;9.70;4.03;;;26.90;97.60;;;;;;5095872;28;20172;-70
2022/06/15 13:30:58;;;;;;;4.90;4.40;;;26.70;99.90;;;;;;5095828;28;20176;-70